Tuesday, October 23, 2018, 9:49 PM EDT
Back to Local

KPWM, Portland International Jetport

Location: Portland, ME, United States Lat: 43.65
Local Time: 9:49 PM EDT ( 1:49 GMT) Lon: -70.3
Time Zone: US/Eastern Elev: 75 ft

Show me the last for .
Show Decoded

2018-10-23 20:51 METAR KPWM 240051Z 18008KT 9SM -RA SCT012 SCT019 OVC046 06/06 A2993 RMK AO2
                 SLP136 P0013 T00610056 =
2018-10-23 19:51 METAR KPWM 232351Z 12017G24KT 7SM RA FEW012 SCT019 OVC044 10/09 A2992 RMK AO2 PK
                 WND 11027/2331 LTG DSNT W SLP131 P0009 60009 T01000089 10111 20083 56029 =
2018-10-23 19:42 METAR KPWM 232342Z 11017G25KT 6SM -RA BR FEW017 SCT032 OVC042 10/09 A2992 RMK
                 AO2 PK WND 11027/2331 LTG DSNT W P0008 T01000089 =
2018-10-23 18:51 METAR KPWM 232251Z 11014G24KT 10SM -RA OVC024 11/07 A2994 RMK AO2 RAB49 SLP139
                 P0000 T01060067 =
2018-10-23 17:51 METAR KPWM 232151Z 10013G23KT 10SM OVC033 11/06 A2997 RMK AO2 SLP148 T01060056 =
2018-10-23 16:51 METAR KPWM 232051Z 13012G22KT 10SM SCT049 SCT120 11/06 A3000 RMK AO2 SLP160
                 T01060056 56029 =
2018-10-23 15:51 METAR KPWM 231951Z 05011KT 10SM FEW032 SCT042 BKN070 09/07 A3003 RMK AO2 SLP169
                 T00890067 =
2018-10-23 14:51 METAR KPWM 231851Z 05006KT 10SM BKN060 OVC080 08/06 A3006 RMK AO2 SLP178
                 T00830061 =
2018-10-23 13:51 METAR KPWM 231751Z COR VRB05KT 10SM FEW029 BKN055 OVC070 08/06 A3009 RMK AO2
                 RAE48 SLP189 P0002 60003 T00830061 10094 20033 58015 =
2018-10-23 13:22 METAR KPWM 231722Z VRB05KT 5SM -RA FEW022 BKN035 OVC045 08/05 A3011 RMK AO2
                 P0002 T00780050 =
2018-10-23 13:00 METAR KPWM 231700Z VRB03KT 9SM -RA BKN028 OVC037 08/05 A3012 RMK AO2 P0000
                 T00830050 =
2018-10-23 12:51 METAR KPWM 231651Z 13008KT 4SM -RA SCT028 OVC037 08/04 A3012 RMK AO2 RAB31
                 SLP198 P0001 T00830044 =
2018-10-23 11:51 METAR KPWM 231551Z 10004KT 10SM FEW041 SCT080 OVC100 09/03 A3013 RMK AO2 SLP204
                 T00890033 =
2018-10-23 10:51 METAR KPWM 231451Z VRB03KT 10SM FEW031 SCT080 08/02 A3014 RMK AO2 SLP208
                 T00830022 58006 =
2018-10-23 09:51 METAR KPWM 231351Z VRB04KT 10SM SCT100 07/02 A3016 RMK AO2 SLP212 T00670017 =
2018-10-23 08:51 METAR KPWM 231251Z VRB05KT 10SM OVC110 04/02 A3017 RMK AO2 SLP216 T00440017 =
2018-10-23 07:51 METAR KPWM 231151Z 34003KT 10SM OVC100 03/01 A3016 RMK AO2 SLP215 T00330011
                 10039 20028 53001 =
2018-10-23 06:51 METAR KPWM 231051Z 00000KT 10SM OVC095 03/01 A3016 RMK AO2 SLP212 T00330011 =
2018-10-23 05:51 METAR KPWM 230951Z 00000KT 10SM OVC080 03/01 A3015 RMK AO2 SLP211 T00330006 =
2018-10-23 04:51 METAR KPWM 230851Z 00000KT 10SM BKN085 OVC090 03/01 A3016 RMK AO2 SLP213
                 T00280006 55002 =
2018-10-23 03:51 METAR KPWM 230751Z AUTO 00000KT 10SM OVC085 03/01 A3016 RMK AO2 SLP212 T00330011
                 =
2018-10-23 02:51 METAR KPWM 230651Z AUTO 00000KT 10SM FEW050 OVC080 03/00 A3017 RMK AO2 SLP215
                 T00330000 =
2018-10-23 01:51 METAR KPWM 230551Z AUTO 00000KT 10SM OVC070 03/01 A3017 RMK AO2 SLP216 T00330006
                 10056 20006 58003 =
2018-10-23 00:51 METAR KPWM 230451Z AUTO VRB03KT 10SM OVC080 03/00 A3018 RMK AO2 SLP219 T00280000
                 400941017 =
2018-10-22 23:51 METAR KPWM 230351Z 00000KT 10SM OVC085 03/M01 A3018 RMK AO2 SLP220 LAST
                 T00281011 =
2018-10-22 22:51 METAR KPWM 230251Z 00000KT 10SM OVC090 01/M02 A3018 RMK AO2 SLP220 T00111017
                 51007 =
2018-10-22 21:51 METAR KPWM 230151Z 00000KT 10SM BKN075 BKN090 03/M03 A3017 RMK AO2 SLP218
                 T00331028 =

Support USWX by starting your Amazon purchase here.